Time;durP1;ratioP1;P1;durP2;ratioP2;P2;SDS_P1;SDS_P2;PMS_P1;PMS_P2;Temp;Humidity;BMP_temperature;BMP_pressure;BME280_temperature;BME280_humidity;BME280_pressure;Samples;Min_cycle;Max_cycle;Signal;HPM_P1;HPM_P2
2022/05/29 00:02:06;;;;;;;11.90;2.50;;;;;7.90;101355.00;;;;10445345;28;20723;-78
2022/05/29 00:07:14;;;;;;;5.80;2.40;;;;;7.80;101351.00;;;;10446568;28;20717;-78
2022/05/29 00:12:17;;;;;;;9.07;2.67;;;;;7.70;101350.00;;;;10440117;28;20202;-78
2022/05/29 00:17:19;;;;;;;7.87;2.60;;;;;7.60;101347.00;;;;10412302;28;20218;-78
2022/05/29 00:22:23;;;;;;;8.13;3.13;;;;;7.60;101347.00;;;;10438051;28;20288;-79
2022/05/29 00:27:25;;;;;;;10.00;3.07;;;;;7.60;101346.00;;;;10452860;28;20275;-79
2022/05/29 00:32:30;;;;;;;7.83;2.97;;;;;7.60;101334.00;;;;10453334;28;20697;-78
2022/05/29 00:37:36;;;;;;;7.50;2.60;;;;;7.60;101346.00;;;;10449817;28;20225;-77
2022/05/29 00:42:37;;;;;;;8.70;3.10;;;;;7.60;101340.00;;;;10436949;28;20261;-78
2022/05/29 00:47:39;;;;;;;7.03;2.60;;;;;7.60;101337.00;;;;10469078;28;20217;-78
2022/05/29 00:52:41;;;;;;;9.30;3.30;;;;;7.70;101342.00;;;;10434852;28;20201;-78
2022/05/29 00:57:52;;;;;;;7.77;3.50;;;;;7.90;101325.00;;;;10439160;28;20209;-81
2022/05/29 01:02:57;;;;;;;6.43;2.93;;;;;7.90;101324.00;;;;10445179;28;20216;-81
2022/05/29 01:08:08;;;;;;;8.33;2.73;;;;;8.00;101317.00;;;;10472650;28;20224;-80
2022/05/29 01:13:38;;;;;;;8.57;3.07;;;;;7.90;101313.00;;;;10456071;28;20202;-81
2022/05/29 01:18:55;;;;;;;9.77;2.83;;;;;7.80;101310.00;;;;10390663;28;20210;-80
2022/05/29 01:24:37;;;;;;;6.57;3.00;;;;;7.70;101300.00;;;;10414557;28;20720;-81
2022/05/29 01:29:56;;;;;;;7.50;2.80;;;;;7.70;101301.00;;;;10445930;28;20264;-81
2022/05/29 01:35:10;;;;;;;8.83;2.73;;;;;7.60;101292.00;;;;10456030;28;20197;-81
2022/05/29 01:40:31;;;;;;;8.13;3.40;;;;;7.60;101286.00;;;;10438541;28;20221;-81
2022/05/29 01:45:55;;;;;;;6.67;3.67;;;;;7.50;101281.00;;;;10454071;28;20201;-81
2022/05/29 01:51:03;;;;;;;6.97;3.67;;;;;7.70;101280.00;;;;10457000;28;20226;-81
2022/05/29 01:56:13;;;;;;;10.00;3.60;;;;;7.80;101280.00;;;;10428124;28;20672;-81
2022/05/29 02:01:16;;;;;;;10.87;2.93;;;;;7.80;101280.00;;;;10455845;28;20205;-81
2022/05/29 02:06:29;;;;;;;8.03;3.70;;;;;7.70;101273.00;;;;10428998;28;20279;-81
2022/05/29 02:11:32;;;;;;;8.50;3.43;;;;;7.70;101284.00;;;;10429145;28;20370;-81
2022/05/29 02:17:12;;;;;;;6.80;2.90;;;;;7.70;101280.00;;;;10426830;28;20727;-81
2022/05/29 02:22:27;;;;;;;11.87;4.00;;;;;7.80;101273.00;;;;10243785;28;20200;-81
2022/05/29 02:27:34;;;;;;;10.93;2.90;;;;;7.80;101273.00;;;;10398206;28;20217;-81
2022/05/29 02:32:59;;;;;;;8.13;3.00;;;;;7.90;101269.00;;;;10480285;28;20216;-80
2022/05/29 02:38:10;;;;;;;9.93;3.40;;;;;8.00;101262.00;;;;10465504;28;20237;-81
2022/05/29 02:43:42;;;;;;;9.80;3.30;;;;;8.20;101264.00;;;;10451250;28;20283;-81
2022/05/29 02:48:49;;;;;;;9.27;3.00;;;;;8.30;101248.00;;;;10452714;28;20221;-81
2022/05/29 02:53:51;;;;;;;5.60;2.93;;;;;8.40;101254.00;;;;10433486;28;20269;-80
2022/05/29 02:58:58;;;;;;;6.30;3.90;;;;;8.50;101253.00;;;;10392225;28;20301;-81
2022/05/29 03:04:25;;;;;;;4.27;2.63;;;;;8.50;101242.00;;;;10441568;28;20224;-81
2022/05/29 03:09:37;;;;;;;8.13;3.70;;;;;8.50;101244.00;;;;10410248;28;20226;-80
2022/05/29 03:14:57;;;;;;;10.37;2.87;;;;;8.60;101247.00;;;;10409278;28;20205;-81
2022/05/29 03:20:22;;;;;;;4.90;2.70;;;;;8.60;101245.00;;;;10445419;28;20259;-81
2022/05/29 03:25:56;;;;;;;3.73;2.67;;;;;8.70;101241.00;;;;10455308;28;20202;-81
2022/05/29 03:31:03;;;;;;;5.43;2.60;;;;;8.80;101242.00;;;;10446173;28;20924;-80
2022/05/29 03:36:08;;;;;;;3.87;2.57;;;;;8.90;101243.00;;;;10431411;28;20197;-80
2022/05/29 03:41:22;;;;;;;5.03;2.47;;;;;9.00;101239.00;;;;10407775;28;20206;-81
2022/05/29 03:46:25;;;;;;;7.30;2.30;;;;;9.10;101234.00;;;;10416810;28;20198;-80
2022/05/29 03:51:27;;;;;;;4.27;2.37;;;;;9.20;101238.00;;;;10417755;28;20213;-81
2022/05/29 03:56:30;;;;;;;3.80;2.20;;;;;9.30;101231.00;;;;10441822;28;20207;-80
2022/05/29 04:01:33;;;;;;;6.60;2.10;;;;;9.40;101220.00;;;;10424150;28;20210;-81
2022/05/29 04:06:36;;;;;;;5.87;1.80;;;;;9.40;101223.00;;;;10417811;28;20644;-81
2022/05/29 04:17:03;;;;;;;5.67;1.80;;;;;9.50;101207.00;;;;10473738;28;20198;-81
2022/05/29 04:22:07;;;;;;;5.00;1.80;;;;;9.50;101203.00;;;;10458830;28;20198;-81
2022/05/29 04:27:12;;;;;;;4.77;1.90;;;;;9.50;101214.00;;;;10474521;28;20202;-81
2022/05/29 04:37:34;;;;;;;6.50;2.10;;;;;9.70;101206.00;;;;10443897;28;20737;-82
2022/05/29 04:42:36;;;;;;;6.63;2.17;;;;;9.70;101207.00;;;;10416708;28;20561;-81
2022/05/29 04:47:38;;;;;;;3.07;1.77;;;;;9.80;101208.00;;;;10437971;28;20247;-80
2022/05/29 04:52:40;;;;;;;6.93;2.20;;;;;9.90;101194.00;;;;10442795;28;20653;-81
2022/05/29 04:57:42;;;;;;;4.40;1.70;;;;;10.30;101202.00;;;;10432758;28;20194;-80
2022/05/29 05:02:44;;;;;;;4.60;1.80;;;;;10.50;101199.00;;;;10431632;28;20225;-80
2022/05/29 05:07:46;;;;;;;5.37;1.87;;;;;10.80;101195.00;;;;10459108;28;20491;-81
2022/05/29 05:12:47;;;;;;;6.67;1.77;;;;;11.20;101199.00;;;;10461539;28;20197;-82
2022/05/29 05:17:49;;;;;;;2.30;1.30;;;;;11.60;101197.00;;;;10459975;28;20740;-81
2022/05/29 05:22:52;;;;;;;6.27;1.60;;;;;11.80;101196.00;;;;10451342;28;20195;-81
2022/05/29 05:27:54;;;;;;;4.17;1.70;;;;;12.10;101186.00;;;;10442972;28;20565;-82
2022/05/29 05:32:56;;;;;;;4.13;1.40;;;;;12.50;101195.00;;;;10448778;28;20209;-82
2022/05/29 05:37:58;;;;;;;6.27;1.30;;;;;12.90;101200.00;;;;10401863;28;20563;-82
2022/05/29 05:42:59;;;;;;;3.77;1.60;;;;;13.50;101191.00;;;;10418042;28;20193;-82
2022/05/29 05:48:02;;;;;;;6.17;1.90;;;;;14.00;101181.00;;;;10476674;28;20241;-82
2022/05/29 05:53:04;;;;;;;3.13;1.30;;;;;14.20;101171.00;;;;10445530;28;20207;-82
2022/05/29 05:58:06;;;;;;;6.23;1.67;;;;;14.20;101178.00;;;;10420711;28;20411;-81
2022/05/29 06:03:08;;;;;;;4.03;1.30;;;;;14.50;101167.00;;;;10462524;28;20280;-81
2022/05/29 06:08:10;;;;;;;3.57;1.07;;;;;14.60;101185.00;;;;10460557;28;20668;-81
2022/05/29 06:13:12;;;;;;;5.10;1.10;;;;;14.80;101191.00;;;;10465922;28;20284;-81
2022/05/29 06:18:17;;;;;;;7.43;1.97;;;;;15.20;101183.00;;;;10482482;28;20224;-81
2022/05/29 06:23:20;;;;;;;4.23;1.13;;;;;15.70;101184.00;;;;10448646;28;20274;-82
2022/05/29 06:28:22;;;;;;;5.80;1.27;;;;;15.80;101190.00;;;;10448689;28;20205;-80
2022/05/29 06:33:26;;;;;;;6.10;1.60;;;;;15.50;101188.00;;;;10425494;28;20201;-81
2022/05/29 06:38:28;;;;;;;4.53;1.37;;;;;15.10;101190.00;;;;10407925;28;20615;-81
2022/05/29 06:43:31;;;;;;;6.43;1.30;;;;;15.90;101185.00;;;;10420718;28;20217;-82
2022/05/29 06:48:34;;;;;;;6.07;1.53;;;;;16.70;101185.00;;;;10438698;28;20217;-82
2022/05/29 06:53:37;;;;;;;5.40;1.47;;;;;16.30;101193.00;;;;10436081;28;20197;-81
2022/05/29 06:58:39;;;;;;;4.93;1.30;;;;;17.00;101189.00;;;;10445560;28;20205;-81
2022/05/29 07:09:04;;;;;;;5.00;1.87;;;;;16.60;101190.00;;;;10459156;28;20216;-82
2022/05/29 07:14:06;;;;;;;6.67;1.83;;;;;17.60;101191.00;;;;10475550;28;20200;-81
2022/05/29 07:19:08;;;;;;;4.53;1.90;;;;;17.20;101184.00;;;;10460316;28;20201;-82
2022/05/29 07:24:10;;;;;;;6.87;1.60;;;;;15.80;101187.00;;;;10466991;28;20197;-81
2022/05/29 07:29:12;;;;;;;10.07;3.40;;;;;14.40;101185.00;;;;10460928;28;20224;-82
2022/05/29 07:34:14;;;;;;;6.60;2.10;;;;;13.30;101196.00;;;;10439972;28;20262;-80
2022/05/29 07:39:16;;;;;;;7.60;2.90;;;;;12.10;101202.00;;;;10454194;28;20197;-81
2022/05/29 07:44:18;;;;;;;9.27;2.27;;;;;12.30;101199.00;;;;10461673;28;20555;-80
2022/05/29 07:49:21;;;;;;;9.80;2.77;;;;;12.80;101195.00;;;;10439657;28;20330;-81
2022/05/29 07:54:25;;;;;;;7.70;2.40;;;;;13.70;101187.00;;;;10444574;28;20193;-80
2022/05/29 07:59:33;;;;;;;3.70;1.70;;;;;14.30;101183.00;;;;10473593;28;20198;-80
2022/05/29 08:04:42;;;;;;;3.20;0.93;;;;;14.60;101187.00;;;;10453551;28;20217;-81
2022/05/29 08:09:45;;;;;;;2.27;0.90;;;;;14.70;101189.00;;;;10436196;28;20677;-80
2022/05/29 08:14:47;;;;;;;2.40;1.20;;;;;15.30;101194.00;;;;10452511;28;20678;-80
2022/05/29 08:19:49;;;;;;;2.50;1.03;;;;;16.30;101182.00;;;;10468324;28;20255;-81
2022/05/29 08:35:34;;;;;;;1.92;0.90;;;;;18.30;101182.00;;;;10445004;28;20206;-81
2022/05/29 08:40:45;;;;;;;2.15;1.20;;;;;18.50;101172.00;;;;10424847;28;20621;-81
2022/05/29 08:45:50;;;;;;;2.75;1.00;;;;;18.80;101154.00;;;;10410260;28;20629;-81
2022/05/29 08:51:07;;;;;;;2.45;0.82;;;;;20.10;101160.00;;;;10436421;28;20288;-81
2022/05/29 08:56:39;;;;;;;2.72;0.90;;;;;19.50;101149.00;;;;10425059;28;20203;-81
2022/05/29 09:01:56;;;;;;;1.67;0.60;;;;;21.00;101157.00;;;;10429065;28;20263;-81
2022/05/29 09:07:01;;;;;;;2.05;0.88;;;;;21.60;101132.00;;;;10408808;28;20269;-82
2022/05/29 09:12:17;;;;;;;1.77;0.82;;;;;20.80;101150.00;;;;10410972;28;20293;-80
2022/05/29 09:17:19;;;;;;;2.28;0.98;;;;;18.30;101147.00;;;;10408013;28;20202;-79
2022/05/29 09:22:44;;;;;;;1.63;0.93;;;;;16.30;101146.00;;;;10408251;28;20210;-81
2022/05/29 09:27:47;;;;;;;1.58;1.23;;;;;14.90;101148.00;;;;10407940;28;20792;-81
2022/05/29 09:32:57;;;;;;;3.63;1.37;;;;;13.70;101164.00;;;;10435742;28;20222;-81
2022/05/29 09:38:08;;;;;;;3.00;1.30;;;;;12.90;101174.00;;;;10426669;28;20198;-80
2022/05/29 09:43:19;;;;;;;3.17;1.30;;;;;12.20;101192.00;;;;10424466;28;20206;-80
2022/05/29 09:53:56;;;;;;;3.53;1.03;;;;;11.50;101193.00;;;;10432815;28;20665;-80
2022/05/29 09:59:16;;;;;;;1.53;0.97;;;;;11.70;101193.00;;;;10407816;28;20198;-81
2022/05/29 10:04:33;;;;;;;2.53;0.97;;;;;11.90;101182.00;;;;10406126;28;20572;-80
2022/05/29 10:09:56;;;;;;;3.40;0.83;;;;;12.60;101179.00;;;;10428802;28;20225;-79
2022/05/29 10:14:58;;;;;;;1.33;0.80;;;;;13.00;101170.00;;;;10429896;28;20213;-80
2022/05/29 10:19:59;;;;;;;1.00;0.90;;;;;13.40;101163.00;;;;10422395;28;20213;-80
2022/05/29 10:25:13;;;;;;;1.93;1.10;;;;;13.90;101167.00;;;;10420021;28;20236;-80
2022/05/29 10:30:31;;;;;;;1.90;0.80;;;;;13.90;101153.00;;;;10410048;28;20221;-80
2022/05/29 10:35:37;;;;;;;1.90;0.97;;;;;14.60;101152.00;;;;10419338;28;20564;-81
2022/05/29 10:40:40;;;;;;;2.30;1.10;;;;;15.30;101154.00;;;;10439973;28;20198;-82
2022/05/29 10:45:47;;;;;;;1.50;0.90;;;;;16.40;101143.00;;;;10458740;28;20708;-81
2022/05/29 10:51:08;;;;;;;1.27;1.07;;;;;16.10;101140.00;;;;10468079;28;20218;-81
2022/05/29 10:56:25;;;;;;;1.90;0.67;;;;;16.10;101140.00;;;;10388270;28;20206;-81
2022/05/29 11:07:26;;;;;;;0.70;0.70;;;;;17.80;101137.00;;;;10459132;28;20201;-78
2022/05/29 11:12:51;;;;;;;0.80;0.80;;;;;18.40;101124.00;;;;10434979;28;20565;-80
2022/05/29 11:18:26;;;;;;;2.38;0.80;;;;;19.90;101113.00;;;;10451582;28;20201;-80
2022/05/29 11:23:49;;;;;;;2.10;1.00;;;;;21.20;101096.00;;;;10428293;28;20564;-80
2022/05/29 11:29:06;;;;;;;1.27;0.70;;;;;20.40;101103.00;;;;10386411;28;20272;-78
2022/05/29 11:34:36;;;;;;;1.45;1.00;;;;;21.00;101091.00;;;;10433739;28;20198;-78
2022/05/29 11:40:00;;;;;;;2.33;1.02;;;;;18.20;101113.00;;;;10441610;28;20197;-78
2022/05/29 11:45:25;;;;;;;3.20;1.30;;;;;15.60;101122.00;;;;10461064;28;20216;-81
2022/05/29 11:55:56;;;;;;;3.17;2.00;;;;;14.40;101099.00;;;;10401676;28;20538;-81
2022/05/29 12:01:10;;;;;;;3.23;1.40;;;;;15.50;101102.00;;;;10415899;28;20232;-80
2022/05/29 12:06:24;;;;;;;2.57;1.20;;;;;16.60;101075.00;;;;10437829;28;20636;-80
2022/05/29 12:11:47;;;;;;;2.27;1.20;;;;;17.50;101074.00;;;;10434552;28;20255;-81
2022/05/29 12:16:53;;;;;;;2.73;1.37;;;;;17.40;101071.00;;;;10465901;28;20193;-80
2022/05/29 12:22:00;;;;;;;1.70;0.90;;;;;16.70;101065.00;;;;10446418;28;20236;-80
2022/05/29 12:27:09;;;;;;;4.23;1.27;;;;;16.80;101063.00;;;;10465336;28;20251;-80
2022/05/29 12:32:23;;;;;;;3.03;1.33;;;;;17.20;101055.00;;;;10429622;28;20726;-80
2022/05/29 12:37:28;;;;;;;3.85;1.58;;;;;17.40;101062.00;;;;10447980;28;20262;-80
2022/05/29 12:42:52;;;;;;;2.85;1.38;;;;;17.40;101066.00;;;;10464973;28;20190;-80
2022/05/29 12:48:14;;;;;;;2.25;1.10;;;;;17.90;101058.00;;;;10425901;28;20240;-79
2022/05/29 12:53:37;;;;;;;5.93;1.52;;;;;17.90;101057.00;;;;10430817;28;20718;-79
2022/05/29 12:58:57;;;;;;;3.10;1.48;;;;;18.30;101044.00;;;;10426107;28;20228;-79
2022/05/29 13:04:05;;;;;;;3.97;1.20;;;;;19.30;101039.00;;;;10480765;28;20213;-79
2022/05/29 13:09:35;;;;;;;5.32;1.30;;;;;19.20;101042.00;;;;10463903;28;20702;-79
2022/05/29 13:14:37;;;;;;;1.95;1.48;;;;;19.00;101038.00;;;;10429171;28;20244;-79
2022/05/29 13:20:13;;;;;;;2.30;1.40;;;;;19.90;101018.00;;;;10406079;28;20217;-79
2022/05/29 13:25:18;;;;;;;1.25;1.13;;;;;20.90;101027.00;;;;10431010;28;20288;-80
2022/05/29 13:31:00;;;;;;;1.45;0.90;;;;;20.60;101042.00;;;;10463758;28;20217;-79
2022/05/29 13:36:02;;;;;;;1.92;1.00;;;;;18.80;101036.00;;;;10455855;28;20206;-77
2022/05/29 13:41:04;;;;;;;0.75;0.70;;;;;17.70;101052.00;;;;10466411;28;20220;-80
2022/05/29 13:46:17;;;;;;;1.67;0.88;;;;;17.40;101039.00;;;;10446860;28;20209;-80
2022/05/29 13:51:29;;;;;;;1.40;0.70;;;;;17.70;101030.00;;;;10429154;28;20248;-80
2022/05/29 13:56:58;;;;;;;1.42;0.90;;;;;17.80;101034.00;;;;10393403;28;20289;-80
2022/05/29 14:07:31;;;;;;;2.88;1.05;;;;;20.50;101017.00;;;;10456008;28;20204;-79
2022/05/29 14:13:09;;;;;;;1.17;1.08;;;;;21.70;101008.00;;;;10430464;28;20299;-80
2022/05/29 14:18:17;;;;;;;2.08;0.90;;;;;18.90;100993.00;;;;10466578;28;20648;-80
2022/05/29 14:23:41;;;;;;;1.08;0.60;;;;;16.20;101017.00;;;;10428943;28;20205;-80
2022/05/29 14:29:28;;;;;;;2.13;0.70;;;;;15.10;101021.00;;;;10426623;28;20200;-80
2022/05/29 14:34:59;;;;;;;1.43;0.60;;;;;15.60;101004.00;;;;10374570;28;20747;-81
2022/05/29 14:40:21;;;;;;;0.70;0.70;;;;;16.30;100999.00;;;;10395134;28;20201;-79
2022/05/29 14:45:27;;;;;;;1.67;0.93;;;;;16.60;101009.00;;;;10404326;28;20198;-80
2022/05/29 14:50:33;;;;;;;1.90;0.80;;;;;16.80;101016.00;;;;10430756;28;20241;-80
2022/05/29 14:56:00;;;;;;;2.03;1.10;;;;;17.00;101010.00;;;;10429352;28;20255;-79
2022/05/29 15:01:14;;;;;;;3.83;0.73;;;;;16.40;101016.00;;;;10413483;28;20263;-79
2022/05/29 15:12:04;;;;;;;1.93;0.80;;;;;14.60;101005.00;;;;10448581;28;20213;-79
2022/05/29 15:17:06;;;;;;;2.00;1.20;;;;;14.30;100998.00;;;;10447056;28;20208;-78
2022/05/29 15:27:43;;;;;;;1.50;0.97;;;;;14.30;100987.00;;;;10437902;28;20255;-80
2022/05/29 15:32:48;;;;;;;1.97;1.10;;;;;14.20;100985.00;;;;10435520;28;20230;-79
2022/05/29 15:38:24;;;;;;;4.87;1.30;;;;;13.90;100977.00;;;;10404651;28;20202;-79
2022/05/29 15:44:05;;;;;;;3.27;1.23;;;;;14.10;100981.00;;;;10431226;28;20280;-80
2022/05/29 15:49:45;;;;;;;1.30;1.20;;;;;14.50;100984.00;;;;10445423;28;20607;-79
2022/05/29 15:55:19;;;;;;;3.13;1.20;;;;;14.60;100983.00;;;;10450202;28;20198;-79
2022/05/29 16:00:24;;;;;;;3.63;1.77;;;;;14.30;100975.00;;;;10445864;28;20224;-79
2022/05/29 16:05:31;;;;;;;5.93;1.40;;;;;14.50;100981.00;;;;10414242;28;20283;-79
2022/05/29 16:10:38;;;;;;;2.27;1.53;;;;;14.60;100967.00;;;;10439596;28;20217;-80
2022/05/29 16:15:41;;;;;;;4.43;1.50;;;;;14.10;100964.00;;;;10442833;28;20325;-79
2022/05/29 16:20:57;;;;;;;2.70;1.23;;;;;14.00;100958.00;;;;10452486;28;20204;-79
2022/05/29 16:26:08;;;;;;;5.93;1.70;;;;;14.20;100963.00;;;;10453423;28;20201;-79
2022/05/29 16:31:29;;;;;;;7.17;2.00;;;;;14.60;100956.00;;;;10443855;28;20695;-79
2022/05/29 16:36:36;;;;;;;2.70;1.60;;;;;14.60;100950.00;;;;10423982;28;20198;-79
2022/05/29 16:53:14;;;;;;;4.77;1.83;;;;;14.70;100938.00;;;;10446525;28;20201;-80
2022/05/29 16:58:39;;;;;;;3.70;1.60;;;;;14.80;100947.00;;;;10445559;28;20194;-79
2022/05/29 17:04:08;;;;;;;3.77;1.80;;;;;15.30;100936.00;;;;10445525;28;20227;-80
2022/05/29 17:09:29;;;;;;;3.97;2.43;;;;;15.60;100928.00;;;;10451191;28;20667;-80
2022/05/29 17:14:31;;;;;;;5.50;1.70;;;;;16.00;100931.00;;;;10451475;28;20199;-79
2022/05/29 17:19:33;;;;;;;2.70;1.43;;;;;16.30;100914.00;;;;10450214;28;20560;-80
2022/05/29 17:25:00;;;;;;;3.07;1.60;;;;;16.00;100928.00;;;;10439447;28;20198;-79
2022/05/29 17:30:24;;;;;;;3.17;1.20;;;;;15.30;100926.00;;;;10400554;28;20228;-80
2022/05/29 17:35:31;;;;;;;3.63;0.97;;;;;14.60;100931.00;;;;10424493;28;20194;-80
2022/05/29 17:40:55;;;;;;;2.50;0.67;;;;;14.50;100928.00;;;;10418843;28;20190;-80
2022/05/29 17:46:08;;;;;;;2.00;0.80;;;;;14.30;100932.00;;;;10416086;28;20228;-80
2022/05/29 17:51:24;;;;;;;2.50;0.90;;;;;14.20;100920.00;;;;10434319;28;20664;-80
2022/05/29 17:56:27;;;;;;;1.23;0.80;;;;;14.10;100930.00;;;;10448215;28;20786;-80
2022/05/29 18:01:30;;;;;;;4.07;1.00;;;;;14.00;100924.00;;;;10426725;28;20221;-81
2022/05/29 18:06:34;;;;;;;4.10;0.80;;;;;14.00;100934.00;;;;10448457;28;20305;-79
2022/05/29 18:11:41;;;;;;;4.20;1.13;;;;;14.00;100931.00;;;;10440942;28;20206;-80
2022/05/29 18:16:43;;;;;;;2.77;0.93;;;;;13.70;100924.00;;;;10425267;28;20206;-79
2022/05/29 18:21:45;;;;;;;2.23;0.90;;;;;13.70;100926.00;;;;10391428;28;20668;-80
2022/05/29 18:26:47;;;;;;;2.17;1.07;;;;;13.60;100933.00;;;;10406965;28;20233;-79
2022/05/29 18:31:49;;;;;;;4.97;1.00;;;;;13.50;100926.00;;;;10424964;28;20205;-80
2022/05/29 18:36:51;;;;;;;3.07;1.00;;;;;13.20;100924.00;;;;10423879;28;20198;-80
2022/05/29 18:41:53;;;;;;;2.67;0.90;;;;;12.90;100928.00;;;;10450036;28;20688;-79
2022/05/29 18:46:59;;;;;;;4.57;1.10;;;;;12.70;100933.00;;;;10427747;28;20191;-80
2022/05/29 18:52:01;;;;;;;3.23;1.47;;;;;12.40;100935.00;;;;10427951;28;20300;-80
2022/05/29 18:57:04;;;;;;;2.60;1.20;;;;;12.20;100932.00;;;;10431892;28;20201;-80
2022/05/29 19:02:06;;;;;;;4.30;1.23;;;;;12.10;100931.00;;;;10447000;28;20342;-80
2022/05/29 19:07:08;;;;;;;4.63;1.60;;;;;11.90;100930.00;;;;10440716;28;20193;-80
2022/05/29 19:12:10;;;;;;;6.50;1.77;;;;;11.70;100914.00;;;;10431863;28;20275;-79
2022/05/29 19:22:33;;;;;;;7.03;1.80;;;;;11.50;100925.00;;;;10472111;28;20778;-80
2022/05/29 19:27:35;;;;;;;3.13;1.70;;;;;11.30;100929.00;;;;10474306;28;20656;-80
2022/05/29 19:32:39;;;;;;;6.07;1.77;;;;;11.10;100928.00;;;;10432645;28;20210;-80
2022/05/29 19:37:41;;;;;;;2.43;1.40;;;;;10.90;100932.00;;;;10474583;28;20207;-80
2022/05/29 19:42:44;;;;;;;3.43;1.57;;;;;10.70;100933.00;;;;10458277;28;20224;-81
2022/05/29 19:47:50;;;;;;;6.27;1.80;;;;;10.50;100935.00;;;;10440723;28;20255;-81
2022/05/29 19:52:52;;;;;;;3.77;1.63;;;;;10.40;100936.00;;;;10450958;28;20209;-81
2022/05/29 19:57:54;;;;;;;3.53;1.20;;;;;10.20;100939.00;;;;10416718;28;20186;-83
2022/05/29 20:02:56;;;;;;;4.47;1.87;;;;;10.10;100938.00;;;;10429383;28;20282;-80
2022/05/29 20:07:58;;;;;;;4.63;1.93;;;;;10.00;100936.00;;;;10457284;28;20606;-81
2022/05/29 20:13:00;;;;;;;5.47;1.80;;;;;9.90;100938.00;;;;10436070;28;20609;-81
2022/05/29 20:18:02;;;;;;;6.03;1.63;;;;;9.80;100940.00;;;;10415108;28;20612;-81
2022/05/29 20:23:05;;;;;;;4.17;1.90;;;;;9.70;100937.00;;;;10416120;28;20217;-81
2022/05/29 20:28:07;;;;;;;2.43;1.53;;;;;9.50;100947.00;;;;10407156;28;20193;-81
2022/05/29 20:33:09;;;;;;;7.70;1.97;;;;;9.30;100935.00;;;;10455973;28;20209;-81
2022/05/29 20:38:12;;;;;;;5.90;2.23;;;;;9.10;100926.00;;;;10446086;28;20189;-81
2022/05/29 20:43:15;;;;;;;3.97;1.97;;;;;9.00;100922.00;;;;10484266;28;20606;-82
2022/05/29 20:48:18;;;;;;;6.40;1.93;;;;;8.80;100928.00;;;;10456651;28;20189;-81
2022/05/29 20:53:20;;;;;;;6.00;2.10;;;;;8.60;100930.00;;;;10431231;28;20293;-82
2022/05/29 20:58:21;;;;;;;5.03;1.87;;;;;8.40;100921.00;;;;10431526;28;20194;-82
2022/05/29 21:03:23;;;;;;;11.17;2.53;;;;;8.30;100923.00;;;;10477814;28;20217;-81
2022/05/29 21:08:25;;;;;;;5.40;2.73;;;;;8.50;100923.00;;;;10453838;28;20251;-81
2022/05/29 21:13:27;;;;;;;8.43;2.03;;;;;8.70;100917.00;;;;10455907;28;20213;-81
2022/05/29 21:18:31;;;;;;;5.63;2.57;;;;;8.90;100919.00;;;;10438804;28;20569;-81
2022/05/29 21:23:33;;;;;;;7.77;2.03;;;;;8.90;100922.00;;;;10440160;28;20198;-81
2022/05/29 21:28:35;;;;;;;7.50;2.10;;;;;8.80;100917.00;;;;10418617;28;20193;-81
2022/05/29 21:33:39;;;;;;;8.60;2.47;;;;;8.80;100917.00;;;;10446730;28;20206;-82
2022/05/29 21:38:42;;;;;;;5.83;1.80;;;;;8.80;100923.00;;;;10397485;28;20199;-81
2022/05/29 21:43:43;;;;;;;4.40;2.17;;;;;8.80;100916.00;;;;10439228;28;20201;-82
2022/05/29 21:48:45;;;;;;;6.77;2.33;;;;;8.70;100911.00;;;;10439911;28;20200;-82
2022/05/29 21:53:49;;;;;;;5.57;2.70;;;;;8.70;100916.00;;;;10470634;28;20210;-81
2022/05/29 21:58:52;;;;;;;8.50;2.40;;;;;8.60;100912.00;;;;10445914;28;20221;-81
2022/05/29 22:03:59;;;;;;;7.73;2.57;;;;;8.50;100912.00;;;;10459947;28;20214;-81
2022/05/29 22:09:03;;;;;;;7.40;2.47;;;;;8.30;100915.00;;;;10455349;28;20189;-81
2022/05/29 22:14:05;;;;;;;4.60;2.13;;;;;8.30;100919.00;;;;10443908;28;20209;-80
2022/05/29 22:19:07;;;;;;;5.53;2.13;;;;;8.40;100922.00;;;;10432048;28;20205;-80
2022/05/29 22:24:10;;;;;;;7.17;2.13;;;;;8.50;100920.00;;;;10426001;28;20244;-82
2022/05/29 22:29:12;;;;;;;5.67;2.20;;;;;8.60;100912.00;;;;10420830;28;20204;-82
2022/05/29 22:34:31;;;;;;;6.63;2.50;;;;;8.70;100921.00;;;;10424312;28;20201;-82
2022/05/29 22:39:34;;;;;;;2.80;1.67;;;;;8.80;100916.00;;;;10436372;28;20595;-82
2022/05/29 22:44:38;;;;;;;6.37;2.10;;;;;8.80;100914.00;;;;10452017;28;20204;-82
2022/05/29 22:49:49;;;;;;;8.30;2.40;;;;;8.80;100911.00;;;;10451051;28;20248;-82
2022/05/29 22:55:03;;;;;;;10.00;3.23;;;;;8.70;100908.00;;;;10426489;28;20206;-82
2022/05/29 23:00:13;;;;;;;5.80;2.30;;;;;8.70;100905.00;;;;10417099;28;20205;-82
2022/05/29 23:05:15;;;;;;;8.57;2.10;;;;;8.60;100898.00;;;;10457654;28;20218;-81
2022/05/29 23:10:17;;;;;;;5.27;2.13;;;;;8.60;100903.00;;;;10396420;28;20269;-82
2022/05/29 23:15:19;;;;;;;4.90;1.77;;;;;8.60;100901.00;;;;10420722;28;20205;-81
2022/05/29 23:20:21;;;;;;;5.20;3.10;;;;;8.50;100902.00;;;;10434987;28;20269;-82
2022/05/29 23:25:25;;;;;;;6.20;2.00;;;;;8.60;100901.00;;;;10451400;28;20193;-82
2022/05/29 23:30:55;;;;;;;5.03;2.23;;;;;8.60;100903.00;;;;10467106;28;20553;-81
2022/05/29 23:35:58;;;;;;;8.40;2.60;;;;;8.50;100905.00;;;;10434830;28;20189;-82
2022/05/29 23:46:36;;;;;;;4.80;2.13;;;;;8.30;100897.00;;;;10442288;28;20591;-82
2022/05/29 23:51:38;;;;;;;7.13;2.70;;;;;8.20;100894.00;;;;10460115;28;20198;-82
2022/05/29 23:56:41;;;;;;;7.50;2.23;;;;;8.20;100893.00;;;;10427474;28;20194;-82
